Mateus Lopes

Scout - Internacional
3 Apr 2027
Samstag
Verarbeitung

Persönlichkeit

Anpassungsfähigkeit (12) Ehrgeiz (2) Kontroverse (12) Loyalität (20) Druck (11) Professionalität (15) Fairness (5) Temperament (9)

Profil

Trainerstil Demokratisch
Lizenz Kontinentale Pro
Entschlossenheit 9
Menschenführung 9
Motivation 9
Disziplin 13
Arbeitszufriedenheit
50%
Ermüdung
0%
Rolle Scout
Gehalt 93.0K p/W
Vertrag 14.03.2030

Leistung

Verhalten Normal
Trainingseffektivität
22%
Spielerentwicklung
70%
Verletzungsprävention
45%
Taktische Umsetzung
50%

Letzte Ereignisse

Nahm an einer Scouting-Besprechung teil jetzt
Spieler begutachtet jetzt
Nahm an einer Scouting-Besprechung teil 7T her
Spieler begutachtet 7T her
Spieler begutachtet 7T her
Spieler begutachtet 14T her
Nahm an einer Scouting-Besprechung teil 14T her
Spieler begutachtet 14T her

Aktuell beobachtet

163
Spieler Verein Status Fähigkeit Vertrauen Beobachtet Zuletzt beobachtet Letzte Stimme
Ianis Stoica Estrela da Amadora Aktiv 117 / 112 40% 5 02.04.2027 -
Figueiredo Alverca Aktiv 134 / 130 40% 1 02.04.2027 -
André Lacximicant Estoril Praia Aktiv 119 / 113 40% 2 01.04.2027 -
Dom Ballard Leyton Orient Aktiv 119 / 118 40% 4 01.04.2027 -
Etiosa Ighodaro Kaizer Chiefs Aktiv 118 / 111 40% 1 01.04.2027 -
Martín Tejón Maritimo Aktiv 121 / 120 40% 5 31.03.2027 -
Khayon Edwards Estoril Praia Aktiv 100 / 107 40% 1 31.03.2027 -
Itumeleng Tau Ajax Cape Town Aktiv 120 / 126 40% 2 28.03.2027 -
Lorent Tolaj Plymouth Argyle Aktiv 113 / 110 40% 2 28.03.2027 -
Niall Ennis Blackpool Aktiv 118 / 122 40% 1 28.03.2027 -
Raúl Alcaina Penafiel Aktiv 107 / 110 40% 4 27.03.2027 -
Stephen Amankona Aduana Stars Aktiv 103 / 97 40% 4 27.03.2027 -
Amos Inusah Wa All Stars Aktiv 122 / 100 40% 1 27.03.2027 -
Bryan Limbombe Maritimo Aktiv 108 / 118 40% 1 19.03.2027 -
Efraín Álvarez Guadalajara Aktiv 125 / 136 40% 4 15.03.2027 -
José Bica Leixões Aktiv 107 / 112 40% 3 15.03.2027 -
Dylan Nandín Arouca Aktiv 119 / 120 40% 4 14.03.2027 -
Gustavo Silva Vitoria Guimaraes Aktiv 132 / 111 40% 1 14.03.2027 -
Luccas Paraízo Leixões Aktiv 111 / 96 40% 3 12.03.2027 -
Samy Merheg Alverca Aktiv 102 / 124 40% 2 12.03.2027 -
Mésaque Djú Portimonense Aktiv 101 / 90 40% 3 10.03.2027 -
Florián Monzón Atlas Aktiv 118 / 119 40% 3 22.02.2027 -
Sydney van Hooijdonk Estrela da Amadora Aktiv 120 / 104 40% 4 22.02.2027 -
Evidence Makgopa Orlando Pirates Aktiv 123 / 117 40% 1 22.02.2027 -
Toni Tamarit Alverca Aktiv 115 / 130 40% 4 21.02.2027 -
Hlompho Modiba Black Aces Aktiv 92 / 89 40% 1 21.02.2027 -
Gabriel Barbosa Farense Aktiv 103 / 102 40% 1 20.02.2027 -
Giorgos Koutsias Famalicao Aktiv 114 / 127 40% 4 18.02.2027 -
Jorge Aguirre Torreense Aktiv 97 / 94 40% 4 18.02.2027 -
Ashkan Shojaei Siah Jamegan Aktiv 120 / 123 40% 2 18.02.2027 -
Miguel Falé Pacos de Ferreira Aktiv 101 / 111 40% 1 17.02.2027 -
Korede Osundina Casa Pia Aktiv 113 / 108 40% 5 06.02.2027 -
Vinícius Lopes Santa Clara Aktiv 115 / 118 40% 3 06.02.2027 -
Allahyar Sayyadmanesh Lech Aktiv 122 / 138 40% 1 06.02.2027 -
João Costa Santa Clara Aktiv 108 / 111 40% 1 23.01.2027 -
Jalen Blesa Rio Ave Aktiv 119 / 110 40% 2 16.01.2027 -
Alfonso Trezza Arouca Aktiv 130 / 121 40% 1 16.01.2027 -
Yassin Fortuné Vizela Aktiv 114 / 105 40% 2 13.01.2027 -
Alexandre Duville-Parsemain Moreirense Aktiv 102 / 98 40% 1 13.01.2027 -
Henrique Araújo Casa Pia Aktiv 130 / 121 40% 2 11.01.2027 -
Camilo Durán Bloemfontein Celtic Aktiv 113 / 122 40% 4 08.01.2027 -
Jonas Wind Braga Aktiv 137 / 131 40% 1 08.01.2027 -
Nicolò Tresoldi Club Brugge Aktiv 133 / 128 40% 1 08.01.2027 -
Brenner Vasco da Gama Aktiv 131 / 121 40% 2 01.01.2027 -
Gabriel Novaes Nacional Aktiv 113 / 114 40% 2 24.12.2026 -
Matheus Henrique Cruzeiro Aktiv 136 / 126 40% 3 30.11.2026 -
Kaveh Mohammadi Padideh Aktiv 125 / 125 40% 1 30.11.2026 -
Jorge Meireles AVS Aktiv 116 / 101 40% 3 29.11.2026 -
Federico Pereira Toluca Aktiv 130 / 125 40% 3 29.11.2026 -
Rubén Duarte Pumas UNAM Aktiv 131 / 130 40% 3 25.11.2026 -
Jon Guridi Sevilla Aktiv 142 / 139 40% 1 25.11.2026 -
Exequiel Zeballos Boca Juniors Aktiv 129 / 138 40% 4 24.11.2026 -
Luís Guilherme Sporting CP Aktiv 126 / 137 40% 2 24.11.2026 -
David Costa Torreense Aktiv 112 / 93 40% 1 24.11.2026 -
Taichi Fukui Arouca Aktiv 128 / 125 40% 3 23.11.2026 -
Vinicinho Bragantino Aktiv 127 / 120 40% 1 23.11.2026 -
Ivan Edson Veracruz Aktiv 139 / 144 40% 1 22.11.2026 -
Matheus Dias Nacional Aktiv 125 / 128 40% 2 21.11.2026 -
Álvaro Martínez Moreirense Aktiv 112 / 128 40% 1 21.11.2026 -
Willer Ditta Cruz Azul Aktiv 131 / 117 40% 2 20.11.2026 -
Erik Lira Cruz Azul Aktiv 145 / 118 40% 1 20.11.2026 -
Vitinho Botafogo Aktiv 141 / 137 40% 1 20.11.2026 -
Tamble Monteiro Rio Ave Aktiv 129 / 110 40% 2 15.11.2026 -
Martinelli Fluminense Aktiv 133 / 145 40% 2 14.11.2026 -
Kevin Prieto Casa Pia Aktiv 101 / 127 40% 2 14.11.2026 -
Victor Hugo Atlético Mineiro Aktiv 131 / 136 40% 1 14.11.2026 -
Sabino Sport Recife Aktiv 126 / 121 40% 1 14.11.2026 -
Lee Hyun-Ju Arouca Aktiv 128 / 119 40% 5 08.11.2026 -
Óscar Aranda Espanyol Aktiv 131 / 134 40% 1 08.11.2026 -
Thapelo Maseko FC Copenhagen Aktiv 116 / 133 40% 1 08.11.2026 -
Lucas Duarte Felgueiras Aktiv 116 / 109 40% 2 05.11.2026 -
Rok Zajc NK Domzale Aktiv 122 / 135 40% 1 05.11.2026 -
Damián Bobadilla Sport Recife Aktiv 131 / 127 40% 1 05.11.2026 -
Israel Reyes Club America Aktiv 143 / 125 40% 1 05.11.2026 -
Rodrigo Ramos Moreirense Aktiv 111 / 122 40% 3 03.11.2026 -
Luka Romero Cruz Azul Aktiv 121 / 116 40% 1 03.11.2026 -
Kélian Nsona Casa Pia Aktiv 109 / 114 40% 1 03.11.2026 -
Santiago Sosa Vasco da Gama Aktiv 133 / 129 40% 1 01.11.2026 -
Víctor Guzmán Monterrey Aktiv 122 / 124 40% 1 01.11.2026 -
Fabrício Bruno Cruzeiro Aktiv 140 / 144 40% 2 31.10.2026 -
Jordan Holsgrove Estoril Praia Aktiv 137 / 117 40% 2 31.10.2026 -
Joe Hodge Tondela Aktiv 120 / 111 40% 2 30.10.2026 -
Brenner Santa Clara Aktiv 116 / 126 40% 4 28.10.2026 -
Diogo Spencer Alverca Aktiv 109 / 103 40% 1 28.10.2026 -
William Cruzeiro Aktiv 135 / 125 40% 2 24.10.2026 -
Santiago Ascacíbar Boca Juniors Aktiv 131 / 136 40% 1 23.10.2026 -
Sebastián Cáceres Club America Aktiv 131 / 133 40% 1 23.10.2026 -
Kevin Lomónaco Independiente Aktiv 126 / 128 40% 1 23.10.2026 -
Majid Dejagah Gostaresh Foulad Aktiv 124 / 132 40% 2 20.10.2026 -
Tomás Chancalay Minnesota United FC Aktiv 128 / 138 40% 1 19.10.2026 -
Marcos Paulo Juventude Aktiv 114 / 107 40% 1 18.10.2026 -
Fabio Blanco Vitoria Guimaraes Aktiv 115 / 121 40% 3 17.10.2026 -
Beni Mukendi Vitoria Guimaraes Aktiv 130 / 129 40% 2 17.10.2026 -
Espen van Ee Arouca Aktiv 108 / 120 40% 1 15.10.2026 -
Thauan Lara Portimonense Aktiv 102 / 111 40% 2 14.10.2026 -
Relebohile Mofokeng Orlando Pirates Aktiv 126 / 122 40% 1 14.10.2026 -
Lucas Veríssimo Santos Aktiv 140 / 132 40% 1 14.10.2026 -
Ayrton Costa Boca Juniors Aktiv 130 / 140 40% 1 14.10.2026 -
Bruno Méndez Toluca Aktiv 124 / 119 40% 1 14.10.2026 -
Kevin Álvarez Club America Aktiv 130 / 121 40% 1 13.10.2026 -
Rodrigo Pinheiro Famalicao Aktiv 129 / 143 40% 2 12.10.2026 -
Brian Gutiérrez Guadalajara Aktiv 132 / 121 40% 1 12.10.2026 -
Tony Strata Vitoria Guimaraes Aktiv 112 / 113 40% 1 12.10.2026 -
Percy Erasmus SuperSport United Aktiv 122 / 126 40% 1 12.10.2026 -
Isidro Pitta Bragantino Aktiv 131 / 117 40% 1 12.10.2026 -
Joaquim Tigres Aktiv 133 / 129 40% 1 08.10.2026 -
Marcos Antonio Sport Recife Aktiv 134 / 134 40% 1 05.10.2026 -
Iker Benito Queretaro Aktiv 127 / 119 40% 1 04.10.2026 -
João Marques Braga Aktiv 121 / 129 40% 1 04.10.2026 -
Telasco Segovia Inter Miami CF Aktiv 135 / 145 40% 2 01.10.2026 -
Omar Campos Cruz Azul Aktiv 116 / 134 40% 1 01.10.2026 -
Afonso Assis Moreirense Aktiv 107 / 126 40% 1 01.10.2026 -
Luciano Juba Bahia Aktiv 141 / 121 40% 3 30.09.2026 -
Alex Luna Instituto Aktiv 131 / 138 40% 1 30.09.2026 -
Javi Sánchez Arouca Aktiv 125 / 127 40% 1 30.09.2026 -
Martim Fernandes Porto Aktiv 135 / 154 40% 2 29.09.2026 -
Saúl Flamengo Aktiv 141 / 134 40% 1 29.09.2026 -
Alexis Cuello San Lorenzo Aktiv 121 / 114 40% 1 26.09.2026 -
Ozziel Herrera Tigres Aktiv 136 / 111 40% 1 21.09.2026 -
Francisco Moura Porto Aktiv 131 / 124 40% 1 18.09.2026 -
Francisco Domingues Moreirense Aktiv 115 / 101 40% 2 17.09.2026 -
Talles Magno New York City Aktiv 127 / 128 40% 2 17.09.2026 -
Tomás O'Connor Gimnasia y Esgrima Aktiv 126 / 129 40% 1 17.09.2026 -
Manu Pozo Torreense Aktiv 113 / 127 40% 2 15.09.2026 -
Manuel Mendonça Moreirense Aktiv 109 / 117 40% 1 13.09.2026 -
Tiago Ribeiro Oliveirense Aktiv 108 / 127 40% 1 13.09.2026 -
Renan Lodi Atlético Mineiro Aktiv 136 / 133 40% 3 12.09.2026 -
Gustaf Lagerbielke Braga Aktiv 137 / 119 40% 1 12.09.2026 -
Alessandro Circati Benfica Aktiv 135 / 122 40% 2 11.09.2026 -
Vitor Carvalho Braga Aktiv 123 / 146 40% 1 11.09.2026 -
Hwang In-Beom Porto Aktiv 141 / 147 40% 2 10.09.2026 -
Enzo Díaz Sport Recife Aktiv 137 / 135 40% 1 10.09.2026 -
Sergio Quintero La Equidad Aktiv 138 / 138 40% 1 10.09.2026 -
Haissem Hassan Bloemfontein Celtic Aktiv 122 / 150 40% 1 09.09.2026 -
Roland Galčík Rio Ave Aktiv 118 / 123 40% 1 08.09.2026 -
Cesar Corona Veracruz Aktiv 144 / 133 40% 1 08.09.2026 -
Paulinho Palmeiras Aktiv 142 / 145 40% 1 08.09.2026 -
Diogo Bezerra Rio Ave Aktiv 113 / 102 40% 1 30.08.2026 -
Lovro Zvonarek Estrela da Amadora Aktiv 117 / 131 40% 1 29.08.2026 -
Gabriel Silva Braga Aktiv 117 / 138 40% 1 29.08.2026 -
Gabriel Veron Porto Aktiv 128 / 111 40% 1 27.08.2026 -
Salvador Blopá Sporting CP Aktiv 104 / 117 40% 1 24.08.2026 -
Gianluca Prestianni Benfica Aktiv 129 / 126 40% 1 24.08.2026 -
Diogo Travassos Braga Aktiv 128 / 139 40% 2 23.08.2026 -
Max Scholze Estrela da Amadora Aktiv 111 / 118 40% 1 23.08.2026 -
Santi García Gil Vicente Aktiv 137 / 144 40% 1 21.08.2026 -
Soma Anzai FC Tokyo Aktiv 120 / 117 40% 1 21.08.2026 -
Lohann Doucet Vitoria Guimaraes Aktiv 119 / 131 40% 1 18.08.2026 -
William Gomes Porto Aktiv 128 / 143 40% 1 16.08.2026 -
Danilo Botafogo Aktiv 140 / 126 40% 1 16.08.2026 -
Gustavo Garcia Famalicao Aktiv 116 / 120 40% 1 14.08.2026 -
Nuno Santos Sporting CP Aktiv 132 / 131 40% 1 13.08.2026 -
Evander FC Cincinnati Aktiv 142 / 145 40% 1 13.08.2026 -
Sergi Altimira Sporting CP Aktiv 136 / 157 40% 1 07.08.2026 -
Alberto Costa Porto Aktiv 145 / 155 40% 1 05.08.2026 -
Francisco Chissumba Braga Aktiv 112 / 106 40% 1 05.08.2026 -
Leonardo Lelo Braga Aktiv 139 / 144 40% 1 05.08.2026 -
Joaquín Piquerez Palmeiras Aktiv 138 / 134 40% 1 04.08.2026 -
Zeno Debast Sporting CP Aktiv 128 / 140 40% 1 04.08.2026 -
Caio Alexandre Bahia Aktiv 136 / 147 40% 1 02.08.2026 -
Alexander Bah Benfica Aktiv 139 / 121 40% 1 02.08.2026 -
Issa Doumbia Sporting CP Aktiv 109 / 115 40% 1 02.08.2026 -
Matija Mitrović Vitoria Guimaraes Aktiv 118 / 121 40% 1 02.08.2026 -